Hauptseite
METAR-TAF:

METAR-TAF

Flughäfen :

Flughafen Sylt

Westerland, Deutschland

Breite: 54-55N, Länge: 008-21E, Höhe: 16 m

Beobachtung

Neuester Wetterbericht von vor 41 Minuten, um 21:20 UTC
Windstille
Temperatur 7°C
Luftfeuchtigkeit 93%
Luftdruck 994 hPa
Sichtweite 10 km oder mehr

METAR: EDXW 272120Z AUTO 00000KT 9999 // SCT030/// 07/06 Q0994

Zeit: 00:01 (22:01 UTC)

Prognose

Neuester Wetterbericht von vor 5 Stunden und 1 Minuten, um 17:00 UTC
Gültige Prognose vom 27 um 18 UTC bis 27 um 21 UTC
Wind 3 kt aus Nord/Nordwest
Sichtweite 10 km oder mehr
Aufgelockert bewölkt in der Höhe von 3500 ft
Wahrscheinlichkeit 30% :
Zeitweise
vom 27 um 18 UTC bis 27 um 21 UTC
Sichtweite: 3500 m
Durchbrochene Bewölkung in der Höhe von 1200 ft, Kumulonimbus.
Regenschauer

TAF: EDXW 271700Z 2718/2721 33003KT 9999 SCT035 PROB30 TEMPO 2718/2721 3500 SHRA BKN012CB

Wetterbeobachtungen und Prognosen von mehr als 4000 Flughäfen (METAR und TAF Bericht).

Die verfügbaren Stationen werden durch gelbe und rote Markierungen auf der Karte dargestellt.

Führen Sie die Maus auf sie, um den Namen der Station zu sehen.

Darauf klicken, um die Beobachtung von Wetterbeobachtungen und Prognosen zu sehen.

Um die Karte zu ändern : klicken Sie auf den grünen Tasten mit einem schwarzen Kreuz Zum Vergrößern, auf den grünen Button mit einem Gedankenstrich zu verkleinern, oder auf die grünen Pfeile für benachbarte Karten.


METAR-TAF: